createdAt,value
2019-04-20T00:00:58.544Z,21.55
2019-04-20T00:03:35.505Z,21.58
2019-04-20T00:06:03.419Z,21.59
2019-04-20T00:08:36.518Z,21.59
2019-04-20T00:11:13.140Z,21.58
2019-04-20T00:13:52.053Z,21.60
2019-04-20T00:16:14.667Z,21.57
2019-04-20T00:18:51.425Z,21.59
2019-04-20T00:21:43.140Z,21.57
2019-04-20T00:24:19.508Z,21.57
2019-04-20T00:27:20.673Z,21.60
2019-04-20T00:29:35.586Z,21.63
2019-04-20T00:32:02.578Z,21.62
2019-04-20T00:34:29.499Z,21.61
2019-04-20T00:36:56.056Z,21.57
2019-04-20T00:39:27.848Z,21.59
2019-04-20T00:42:03.518Z,21.58
2019-04-20T00:44:35.802Z,21.59
2019-04-20T00:47:17.530Z,21.57
2019-04-20T00:49:48.318Z,21.60
2019-04-20T00:52:29.150Z,21.62
2019-04-20T00:54:43.118Z,21.58
2019-04-20T00:57:24.443Z,21.48
2019-04-20T01:00:05.798Z,21.40
2019-04-20T01:02:34.853Z,21.37
2019-04-20T01:05:14.749Z,21.35
2019-04-20T01:07:49.802Z,21.33
2019-04-20T01:10:15.747Z,21.34
2019-04-20T01:12:47.505Z,21.31
2019-04-20T01:15:30.170Z,21.31
2019-04-20T01:17:52.828Z,21.32
2019-04-20T01:20:26.461Z,21.31
2019-04-20T01:23:02.180Z,21.32
2019-04-20T01:25:33.844Z,21.30
2019-04-20T01:28:13.041Z,21.34
2019-04-20T01:30:39.801Z,21.35
2019-04-20T01:33:21.181Z,21.35
2019-04-20T01:35:53.602Z,21.35
2019-04-20T01:38:26.835Z,21.36
2019-04-20T01:40:42.212Z,21.37
2019-04-20T01:43:12.137Z,21.36
2019-04-20T01:45:43.951Z,21.36
2019-04-20T01:48:20.466Z,21.36
2019-04-20T01:50:59.449Z,21.36
2019-04-20T01:53:44.162Z,21.38
2019-04-20T01:56:15.402Z,21.36
2019-04-20T01:59:10.189Z,21.35
2019-04-20T02:01:45.638Z,21.36
2019-04-20T02:04:30.157Z,21.34
2019-04-20T02:07:01.626Z,21.32
2019-04-20T02:09:32.523Z,21.31
2019-04-20T02:12:09.297Z,21.34
2019-04-20T02:14:43.001Z,21.31
2019-04-20T02:17:16.756Z,21.32
2019-04-20T02:19:59.831Z,21.33
2019-04-20T02:22:30.370Z,21.30
2019-04-20T02:24:44.827Z,21.31
2019-04-20T02:27:20.606Z,21.31
2019-04-20T02:30:14.325Z,21.30
2019-04-20T02:32:55.531Z,21.31
2019-04-20T02:38:59.988Z,21.32
2019-04-20T02:41:39.796Z,21.31
2019-04-20T02:43:59.485Z,21.31
2019-04-20T02:46:22.475Z,21.33
2019-04-20T02:49:01.263Z,21.35
2019-04-20T02:51:23.550Z,21.33
2019-04-20T02:54:15.195Z,21.34
2019-04-20T02:56:36.112Z,21.33
2019-04-20T02:59:17.144Z,21.33
2019-04-20T03:01:39.312Z,21.35
2019-04-20T03:03:52.633Z,21.36
2019-04-20T03:06:32.861Z,21.38
2019-04-20T03:09:15.276Z,21.34
2019-04-20T03:11:53.908Z,21.34
2019-04-20T03:14:13.934Z,21.33
2019-04-20T03:16:50.400Z,21.33
2019-04-20T03:19:19.811Z,21.32
2019-04-20T03:22:00.088Z,21.29
2019-04-20T03:24:31.132Z,21.33
2019-04-20T03:26:59.896Z,21.31
2019-04-20T03:29:52.299Z,21.28
2019-04-20T03:33:09.613Z,21.29
2019-04-20T03:35:20.048Z,21.26
2019-04-20T03:37:48.588Z,21.27
2019-04-20T03:40:12.751Z,21.30
2019-04-20T03:42:33.037Z,21.32
2019-04-20T03:45:09.340Z,21.31
2019-04-20T03:47:47.486Z,21.37
2019-04-20T03:50:33.355Z,21.42
2019-04-20T03:53:15.565Z,21.42
2019-04-20T03:56:02.138Z,21.39
2019-04-20T03:58:47.201Z,21.38
2019-04-20T04:02:06.277Z,21.42
2019-04-20T04:04:23.732Z,21.46
2019-04-20T04:06:42.242Z,21.47
2019-04-20T04:09:16.437Z,21.46
2019-04-20T04:11:55.042Z,21.48
2019-04-20T04:14:11.579Z,21.52
2019-04-20T04:16:51.322Z,21.53
2019-04-20T04:19:25.229Z,21.52
2019-04-20T04:22:08.899Z,21.52
2019-04-20T04:24:36.826Z,21.52
2019-04-20T04:27:14.922Z,21.44
2019-04-20T04:29:50.677Z,21.41
2019-04-20T04:32:46.806Z,21.35
2019-04-20T04:34:57.973Z,21.31
2019-04-20T04:37:32.721Z,21.37
2019-04-20T04:40:14.562Z,21.43
2019-04-20T04:42:42.765Z,21.46
2019-04-20T04:45:00.813Z,21.46
2019-04-20T04:47:23.987Z,21.43
2019-04-20T04:50:05.217Z,21.46
2019-04-20T04:52:37.572Z,21.45
2019-04-20T04:55:13.363Z,21.45
2019-04-20T04:57:32.646Z,21.46
2019-04-20T05:00:03.648Z,21.44
2019-04-20T05:02:45.461Z,21.43
2019-04-20T05:05:50.308Z,21.44
2019-04-20T05:08:18.965Z,21.48
2019-04-20T05:10:45.662Z,21.43
2019-04-20T05:13:18.305Z,21.44
2019-04-20T05:16:05.201Z,21.49
2019-04-20T05:18:44.944Z,21.53
2019-04-20T05:21:39.446Z,21.55
2019-04-20T05:24:28.880Z,21.57
2019-04-20T05:27:13.423Z,21.60
2019-04-20T05:29:31.689Z,21.62
2019-04-20T05:32:07.921Z,21.55
2019-04-20T05:35:02.355Z,21.58
2019-04-20T05:37:33.345Z,21.61
2019-04-20T05:40:05.984Z,21.65
2019-04-20T05:42:39.763Z,21.65
2019-04-20T05:45:10.242Z,21.68
2019-04-20T05:47:44.076Z,21.69
2019-04-20T05:50:08.271Z,21.70
2019-04-20T05:55:21.000Z,21.69
2019-04-20T05:57:56.748Z,21.71
2019-04-20T06:00:33.555Z,21.73
2019-04-20T06:03:02.349Z,21.72
2019-04-20T06:05:42.611Z,21.70
2019-04-20T06:08:09.358Z,21.71
2019-04-20T06:10:38.490Z,21.71
2019-04-20T06:13:14.767Z,21.74
2019-04-20T06:16:07.817Z,21.75
2019-04-20T06:18:49.662Z,21.75
2019-04-20T06:21:39.554Z,21.78
2019-04-20T06:24:18.362Z,21.79
2019-04-20T06:27:01.010Z,21.80
2019-04-20T06:29:23.102Z,21.77
2019-04-20T06:32:05.172Z,21.79
2019-04-20T06:34:40.021Z,21.82
2019-04-20T06:37:04.115Z,21.84
2019-04-20T06:39:41.673Z,21.84
2019-04-20T06:42:21.990Z,21.84
2019-04-20T06:44:48.392Z,21.86
2019-04-20T06:47:21.256Z,21.86
2019-04-20T06:49:54.816Z,21.87
2019-04-20T06:52:45.419Z,21.88
2019-04-20T06:55:22.038Z,21.87
2019-04-20T06:58:01.309Z,21.88
2019-04-20T07:00:22.885Z,21.88
2019-04-20T07:03:07.954Z,21.88
2019-04-20T07:05:33.134Z,21.89
2019-04-20T07:08:27.670Z,21.89
2019-04-20T07:10:44.045Z,21.89
2019-04-20T07:13:06.226Z,21.88
2019-04-20T07:15:55.203Z,21.88
2019-04-20T07:18:35.683Z,21.85
2019-04-20T07:21:35.420Z,21.80
2019-04-20T07:23:53.415Z,21.78
2019-04-20T07:26:34.433Z,21.77
2019-04-20T07:28:58.833Z,21.77
2019-04-20T07:31:29.376Z,21.77
2019-04-20T07:34:03.729Z,21.75
2019-04-20T07:36:37.751Z,21.75
2019-04-20T07:39:13.285Z,21.75
2019-04-20T07:41:49.180Z,21.75
2019-04-20T07:44:18.521Z,21.74
2019-04-20T07:47:04.325Z,21.73
2019-04-20T07:49:18.115Z,21.73
2019-04-20T07:51:37.490Z,21.73
2019-04-20T07:54:33.211Z,21.73
2019-04-20T07:57:02.097Z,21.73
2019-04-20T07:59:23.184Z,21.74
2019-04-20T08:02:23.926Z,21.73
2019-04-20T08:04:56.595Z,21.75
2019-04-20T08:07:12.733Z,21.74
2019-04-20T08:09:51.462Z,21.74
2019-04-20T08:12:51.863Z,21.75
2019-04-20T08:15:32.451Z,21.72
2019-04-20T08:20:24.554Z,21.72
2019-04-20T08:22:59.145Z,21.73
2019-04-20T08:25:25.579Z,21.72
2019-04-20T08:28:23.290Z,21.70
2019-04-20T08:31:16.894Z,21.71
2019-04-20T08:34:07.732Z,21.69
2019-04-20T08:36:36.277Z,21.69
2019-04-20T08:41:29.777Z,21.67
2019-04-20T08:44:21.088Z,21.65
2019-04-20T08:46:49.572Z,21.64
2019-04-20T08:49:22.473Z,21.64
2019-04-20T08:51:58.850Z,21.60
2019-04-20T08:54:20.698Z,21.57
2019-04-20T08:56:39.394Z,21.52
2019-04-20T08:59:04.799Z,21.50
2019-04-20T09:01:37.334Z,21.46
2019-04-20T09:04:15.331Z,21.45
2019-04-20T09:06:52.238Z,21.43
2019-04-20T09:12:01.238Z,21.38
2019-04-20T09:14:20.873Z,21.41
2019-04-20T09:17:03.414Z,21.42
2019-04-20T09:19:39.981Z,21.44
2019-04-20T09:22:28.074Z,21.45
2019-04-20T09:25:19.257Z,21.46
2019-04-20T09:27:36.006Z,21.47
2019-04-20T09:30:08.933Z,21.45
2019-04-20T09:32:56.662Z,21.46
2019-04-20T09:35:34.227Z,21.47
2019-04-20T09:38:09.113Z,21.48
2019-04-20T09:40:46.146Z,21.48
2019-04-20T09:43:00.261Z,21.48
2019-04-20T09:45:47.313Z,21.50
2019-04-20T09:48:18.166Z,21.45
2019-04-20T09:51:04.759Z,21.44
2019-04-20T09:53:33.041Z,21.47
2019-04-20T09:56:08.764Z,21.44
2019-04-20T09:58:37.841Z,21.41
2019-04-20T10:01:11.197Z,21.41
2019-04-20T10:03:28.964Z,21.38
2019-04-20T10:06:01.249Z,21.37
2019-04-20T10:08:40.317Z,21.40
2019-04-20T10:11:07.992Z,21.39
2019-04-20T10:13:38.654Z,21.41
2019-04-20T10:16:09.284Z,21.37
2019-04-20T10:18:46.402Z,21.34
2019-04-20T10:21:12.239Z,21.37
2019-04-20T10:23:42.940Z,21.34
2019-04-20T10:26:14.389Z,21.37
2019-04-20T10:28:45.633Z,21.34
2019-04-20T10:31:16.791Z,21.34
2019-04-20T10:33:47.522Z,21.36
2019-04-20T10:36:37.584Z,21.37
2019-04-20T10:39:10.887Z,21.37
2019-04-20T10:41:49.129Z,21.37
2019-04-20T10:44:19.282Z,21.35
2019-04-20T10:46:51.196Z,21.35
2019-04-20T10:49:23.047Z,21.35
2019-04-20T10:51:55.776Z,21.35
2019-04-20T10:54:26.668Z,21.36
2019-04-20T10:56:57.486Z,21.38
2019-04-20T10:59:28.208Z,21.36
2019-04-20T11:01:58.913Z,21.37
2019-04-20T11:04:30.531Z,21.38
2019-04-20T11:07:02.724Z,21.38
2019-04-20T11:09:34.484Z,21.36
2019-04-20T11:12:08.319Z,21.35
2019-04-20T11:14:40.898Z,21.34
2019-04-20T11:17:10.061Z,21.32
2019-04-20T11:19:41.162Z,21.48
2019-04-20T11:22:10.836Z,21.74
2019-04-20T11:24:40.562Z,21.73
2019-04-20T11:27:10.007Z,21.73
2019-04-20T11:29:40.238Z,21.73
2019-04-20T11:32:12.385Z,21.74
2019-04-20T11:34:42.446Z,21.75
2019-04-20T11:37:11.274Z,21.76
2019-04-20T11:39:41.084Z,21.76
2019-04-20T11:42:09.992Z,21.78
2019-04-20T11:44:38.731Z,21.78
2019-04-20T11:47:08.469Z,21.79
2019-04-20T11:49:37.925Z,21.80
2019-04-20T11:52:07.749Z,21.78
2019-04-20T11:54:37.550Z,21.79
2019-04-20T11:57:07.149Z,21.79
2019-04-20T11:59:37.115Z,21.77
2019-04-20T12:02:32.981Z,21.75
2019-04-20T12:05:13.169Z,21.76
2019-04-20T12:07:36.285Z,21.74
2019-04-20T12:10:10.100Z,21.73
2019-04-20T12:12:42.142Z,21.74
2019-04-20T12:15:12.721Z,21.74
2019-04-20T12:17:42.204Z,21.75
2019-04-20T12:20:11.575Z,21.76
2019-04-20T12:22:42.132Z,21.77
2019-04-20T12:25:14.243Z,21.80
2019-04-20T12:27:48.662Z,21.81
2019-04-20T12:30:13.552Z,21.84
2019-04-20T12:32:46.734Z,21.84
2019-04-20T12:35:16.174Z,21.84
2019-04-20T12:37:47.229Z,21.85
2019-04-20T12:40:17.434Z,21.85
2019-04-20T12:42:46.883Z,21.84
2019-04-20T12:45:17.664Z,21.83
2019-04-20T12:47:49.810Z,21.83
2019-04-20T12:50:21.480Z,21.81
2019-04-20T12:52:52.616Z,21.80
2019-04-20T12:55:22.879Z,21.78
2019-04-20T12:57:52.596Z,21.79
2019-04-20T13:00:25.673Z,21.80
2019-04-20T13:02:56.231Z,21.81
2019-04-20T13:05:25.789Z,21.81
2019-04-20T13:07:58.958Z,21.81
2019-04-20T13:10:27.472Z,21.82
2019-04-20T13:13:06.243Z,21.83
2019-04-20T13:16:02.541Z,21.83
2019-04-20T13:18:39.575Z,21.82
2019-04-20T13:21:09.272Z,21.82
2019-04-20T13:23:38.862Z,21.81
2019-04-20T13:26:12.277Z,21.83
2019-04-20T13:28:43.297Z,21.83
2019-04-20T13:31:13.778Z,21.83
2019-04-20T13:33:45.306Z,21.84
2019-04-20T13:36:14.917Z,21.84
2019-04-20T13:38:44.388Z,21.84
2019-04-20T13:41:13.833Z,21.85
2019-04-20T13:43:43.925Z,21.85
2019-04-20T13:46:13.466Z,21.87
2019-04-20T13:48:42.836Z,21.86
2019-04-20T13:51:12.753Z,21.87
2019-04-20T13:53:43.305Z,21.87
2019-04-20T13:56:14.031Z,21.86
2019-04-20T13:58:51.912Z,21.86
2019-04-20T14:01:36.999Z,21.86
2019-04-20T14:04:11.080Z,21.87
2019-04-20T14:06:41.456Z,21.87
2019-04-20T14:09:11.826Z,21.87
2019-04-20T14:11:43.320Z,21.87
2019-04-20T14:14:13.199Z,21.87
2019-04-20T14:16:43.116Z,21.87
2019-04-20T14:19:14.218Z,21.87
2019-04-20T14:21:44.055Z,21.87
2019-04-20T14:24:14.966Z,21.86
2019-04-20T14:26:45.726Z,21.87
2019-04-20T14:29:15.279Z,21.87
2019-04-20T14:31:45.877Z,21.87
2019-04-20T14:34:15.378Z,21.87
2019-04-20T14:36:44.787Z,21.87
2019-04-20T14:39:16.203Z,21.88
2019-04-20T14:41:46.500Z,21.87
2019-04-20T14:44:16.216Z,21.88
2019-04-20T14:46:45.753Z,21.88
2019-04-20T14:49:15.113Z,21.88
2019-04-20T14:51:45.770Z,21.89
2019-04-20T14:54:15.346Z,21.89
2019-04-20T14:56:45.418Z,21.88
2019-04-20T14:59:27.953Z,21.90
2019-04-20T15:02:19.455Z,21.89
2019-04-20T15:04:50.348Z,21.89
2019-04-20T15:07:20.486Z,21.90
2019-04-20T15:09:51.054Z,21.89
2019-04-20T15:12:21.272Z,21.89
2019-04-20T15:14:50.929Z,21.89
2019-04-20T15:17:45.826Z,21.90
2019-04-20T15:20:30.675Z,21.89
2019-04-20T15:23:01.862Z,21.90
2019-04-20T15:25:31.668Z,21.90
2019-04-20T15:28:06.016Z,21.90
2019-04-20T15:30:36.141Z,21.90
2019-04-20T15:33:07.301Z,21.89
2019-04-20T15:35:37.887Z,21.89
2019-04-20T15:38:09.107Z,21.89
2019-04-20T15:40:39.425Z,21.90
2019-04-20T15:43:14.453Z,21.90
2019-04-20T15:45:41.243Z,21.90
2019-04-20T15:48:12.176Z,21.90
2019-04-20T15:50:41.759Z,21.89
2019-04-20T15:53:11.451Z,21.84
2019-04-20T15:55:43.862Z,21.81
2019-04-20T15:58:12.323Z,21.81
2019-04-20T16:00:42.503Z,21.81
2019-04-20T16:03:17.202Z,21.82
2019-04-20T16:05:51.418Z,21.82
2019-04-20T16:08:32.401Z,21.83
2019-04-20T16:11:04.657Z,21.82
2019-04-20T16:13:38.049Z,21.83
2019-04-20T16:16:05.687Z,21.83
2019-04-20T16:18:36.844Z,21.83
2019-04-20T16:21:13.340Z,21.83
2019-04-20T16:23:46.356Z,21.82
2019-04-20T16:26:41.941Z,21.83
2019-04-20T16:29:11.635Z,21.81
2019-04-20T16:31:43.939Z,21.82
2019-04-20T16:34:13.361Z,21.83
2019-04-20T16:36:44.517Z,21.82
2019-04-20T16:39:14.412Z,21.81
2019-04-20T16:41:44.498Z,21.83
2019-04-20T16:44:15.543Z,21.81
2019-04-20T16:46:46.308Z,21.81
2019-04-20T16:49:16.888Z,21.81
2019-04-20T16:51:47.505Z,21.81
2019-04-20T16:54:17.623Z,21.81
2019-04-20T16:56:47.135Z,21.81
2019-04-20T16:59:17.842Z,21.81
2019-04-20T17:01:48.518Z,21.81
2019-04-20T17:04:22.250Z,21.80
2019-04-20T17:07:16.797Z,21.81
2019-04-20T17:09:47.672Z,21.80
2019-04-20T17:12:17.741Z,21.79
2019-04-20T17:14:47.686Z,21.79
2019-04-20T17:17:17.755Z,21.78
2019-04-20T17:19:49.675Z,21.78
2019-04-20T17:22:23.317Z,21.77
2019-04-20T17:24:55.828Z,21.77
2019-04-20T17:27:46.963Z,21.78
2019-04-20T17:30:35.889Z,21.77
2019-04-20T17:33:08.192Z,21.77
2019-04-20T17:35:52.591Z,21.77
2019-04-20T17:38:09.176Z,21.76
2019-04-20T17:41:01.532Z,21.75
2019-04-20T17:43:23.275Z,21.75
2019-04-20T17:45:54.346Z,21.75
2019-04-20T17:48:27.603Z,21.75
2019-04-20T17:51:10.852Z,21.75
2019-04-20T17:53:47.362Z,21.75
2019-04-20T17:56:12.006Z,21.74
2019-04-20T17:58:43.799Z,21.75
2019-04-20T18:02:01.929Z,21.74
2019-04-20T18:04:54.889Z,21.73
2019-04-20T18:07:04.460Z,21.73
2019-04-20T18:09:44.749Z,21.72
2019-04-20T18:11:59.656Z,21.72
2019-04-20T18:14:43.149Z,21.71
2019-04-20T18:17:21.475Z,21.70
2019-04-20T18:20:09.467Z,21.70
2019-04-20T18:22:44.194Z,21.70
2019-04-20T18:25:32.113Z,21.69
2019-04-20T18:28:01.206Z,21.69
2019-04-20T18:30:31.072Z,21.68
2019-04-20T18:32:49.839Z,21.68
2019-04-20T18:35:22.506Z,21.67
2019-04-20T18:37:59.311Z,21.67
2019-04-20T18:40:32.370Z,21.66
2019-04-20T18:43:01.737Z,21.67
2019-04-20T18:45:39.519Z,21.67
2019-04-20T18:48:16.380Z,21.66
2019-04-20T18:50:36.115Z,21.66
2019-04-20T18:53:00.089Z,21.65
2019-04-20T18:55:40.937Z,21.65
2019-04-20T18:58:01.530Z,21.66
2019-04-20T19:00:38.011Z,21.66
2019-04-20T19:03:12.054Z,21.66
2019-04-20T19:05:35.764Z,21.67
2019-04-20T19:08:11.399Z,21.66
2019-04-20T19:10:39.835Z,21.67
2019-04-20T19:13:23.822Z,21.67
2019-04-20T19:16:21.027Z,21.67
2019-04-20T19:19:06.656Z,21.67
2019-04-20T19:21:26.895Z,21.67
2019-04-20T19:24:04.008Z,21.68
2019-04-20T19:26:28.587Z,21.68
2019-04-20T19:29:13.369Z,21.69
2019-04-20T19:31:46.092Z,21.69
2019-04-20T19:34:22.410Z,21.69
2019-04-20T19:36:38.947Z,21.70
2019-04-20T19:39:19.459Z,21.69
2019-04-20T19:41:42.881Z,21.70
2019-04-20T19:44:15.899Z,21.70
2019-04-20T19:47:03.286Z,21.71
2019-04-20T19:49:22.017Z,21.71
2019-04-20T19:52:14.263Z,21.72
2019-04-20T19:54:34.550Z,21.72
2019-04-20T19:57:00.497Z,21.72
2019-04-20T19:59:23.340Z,21.72
2019-04-20T20:01:47.560Z,21.73
2019-04-20T20:04:17.659Z,21.73
2019-04-20T20:06:54.253Z,21.73
2019-04-20T20:09:20.053Z,21.74
2019-04-20T20:11:50.025Z,21.74
2019-04-20T20:14:28.338Z,21.75
2019-04-20T20:17:11.130Z,21.75
2019-04-20T20:19:38.112Z,21.76
2019-04-20T20:22:07.004Z,21.76
2019-04-20T20:24:24.876Z,21.77
2019-04-20T20:27:00.307Z,21.77
2019-04-20T20:29:34.137Z,21.78
2019-04-20T20:32:13.341Z,21.76
2019-04-20T20:34:38.315Z,21.77
2019-04-20T20:37:06.476Z,21.78
2019-04-20T20:39:36.630Z,21.78
2019-04-20T20:42:15.608Z,21.79
2019-04-20T20:44:45.517Z,21.80
2019-04-20T20:47:31.721Z,21.79
2019-04-20T20:50:03.235Z,21.80
2019-04-20T20:52:29.019Z,21.82
2019-04-20T20:54:52.572Z,21.81
2019-04-20T20:57:20.092Z,21.82
2019-04-20T20:59:54.804Z,21.82
2019-04-20T21:02:24.324Z,21.83
2019-04-20T21:04:51.448Z,21.84
2019-04-20T21:07:20.912Z,21.84
2019-04-20T21:09:50.483Z,21.85
2019-04-20T21:12:21.704Z,21.85
2019-04-20T21:14:51.025Z,21.84
2019-04-20T21:17:25.586Z,21.84
2019-04-20T21:20:07.427Z,21.84
2019-04-20T21:22:46.294Z,21.85
2019-04-20T21:24:58.893Z,21.86
2019-04-20T21:27:29.819Z,21.86
2019-04-20T21:30:01.434Z,21.86
2019-04-20T21:32:33.956Z,21.86
2019-04-20T21:35:05.292Z,21.87
2019-04-20T21:37:33.081Z,21.87
2019-04-20T21:40:14.616Z,21.87
2019-04-20T21:42:39.661Z,21.87
2019-04-20T21:45:10.846Z,21.88
2019-04-20T21:47:38.394Z,21.88
2019-04-20T21:50:26.651Z,21.88
2019-04-20T21:52:43.005Z,21.88
2019-04-20T21:55:09.841Z,21.89
2019-04-20T21:57:48.565Z,21.88
2019-04-20T22:00:21.687Z,21.88
2019-04-20T22:02:56.818Z,21.88
2019-04-20T22:05:21.363Z,21.89
2019-04-20T22:07:50.728Z,21.90
2019-04-20T22:10:25.995Z,21.89
2019-04-20T22:12:56.447Z,21.88
2019-04-20T22:15:27.154Z,21.89
2019-04-20T22:17:54.645Z,21.89
2019-04-20T22:20:33.632Z,21.89
2019-04-20T22:23:09.792Z,21.89
2019-04-20T22:25:43.769Z,21.89
2019-04-20T22:28:02.365Z,21.89
2019-04-20T22:30:32.177Z,21.88
2019-04-20T22:33:08.121Z,21.89
2019-04-20T22:35:44.250Z,21.88
2019-04-20T22:38:18.807Z,21.88
2019-04-20T22:40:50.911Z,21.87
2019-04-20T22:43:26.131Z,21.87
2019-04-20T22:45:54.021Z,21.87
2019-04-20T22:48:22.917Z,21.86
2019-04-20T22:51:14.322Z,21.86
2019-04-20T22:53:35.549Z,21.85
2019-04-20T22:56:13.566Z,21.85
2019-04-20T22:58:40.388Z,21.84
2019-04-20T23:01:01.250Z,21.85
2019-04-20T23:03:28.265Z,21.84
2019-04-20T23:05:58.654Z,21.83
2019-04-20T23:08:28.801Z,21.83
2019-04-20T23:10:59.618Z,21.83
2019-04-20T23:13:34.978Z,21.83
2019-04-20T23:16:01.989Z,21.81
2019-04-20T23:18:33.905Z,21.82
2019-04-20T23:21:07.070Z,21.81
2019-04-20T23:23:35.591Z,21.80
2019-04-20T23:26:07.164Z,21.80
2019-04-20T23:28:40.064Z,21.80
2019-04-20T23:31:14.941Z,21.80
2019-04-20T23:33:40.177Z,21.79
2019-04-20T23:36:10.101Z,21.80
2019-04-20T23:38:43.210Z,21.79
2019-04-20T23:41:13.570Z,21.78
2019-04-20T23:43:47.717Z,21.78
2019-04-20T23:46:29.426Z,21.78
2019-04-20T23:49:22.089Z,21.79
2019-04-20T23:52:07.967Z,21.78
2019-04-20T23:54:22.040Z,21.77
2019-04-20T23:56:49.986Z,21.76
2019-04-20T23:59:19.181Z,21.77
